createdAt,value
2023-01-29T00:00:06.000Z,1.399999976158142
2023-01-29T00:00:21.000Z,0.8999999761581421
2023-01-29T00:00:36.000Z,0.8999999761581421
2023-01-29T00:00:51.000Z,0.8999999761581421
2023-01-29T00:01:06.000Z,0.8999999761581421
2023-01-29T00:01:21.000Z,1.399999976158142
2023-01-29T00:01:36.000Z,0.8999999761581421
2023-01-29T00:01:51.000Z,1.399999976158142
2023-01-29T00:02:06.000Z,1.399999976158142
2023-01-29T00:02:21.000Z,0.0
2023-01-29T00:02:36.000Z,0.0
2023-01-29T00:02:51.000Z,0.8999999761581421
2023-01-29T00:03:06.000Z,0.0
2023-01-29T00:03:21.000Z,0.0
2023-01-29T00:03:36.000Z,0.0
2023-01-29T00:03:51.000Z,0.0
2023-01-29T00:04:06.000Z,0.8999999761581421
2023-01-29T00:04:21.000Z,0.0
2023-01-29T00:04:35.000Z,0.0
2023-01-29T00:04:50.000Z,0.0
2023-01-29T00:05:05.000Z,0.0
2023-01-29T00:05:35.000Z,0.0
2023-01-29T00:05:50.000Z,0.0
2023-01-29T00:06:05.000Z,0.0
2023-01-29T00:06:20.000Z,0.0
2023-01-29T00:06:35.000Z,0.0
2023-01-29T00:06:51.000Z,0.0
2023-01-29T00:07:06.000Z,0.0
2023-01-29T00:07:21.000Z,0.0
2023-01-29T00:07:36.000Z,0.0
2023-01-29T00:07:51.000Z,0.0
2023-01-29T00:08:06.000Z,0.0
2023-01-29T00:08:21.000Z,0.8999999761581421
2023-01-29T00:08:36.000Z,1.899999976158142
2023-01-29T00:08:51.000Z,0.8999999761581421
2023-01-29T00:09:06.000Z,1.399999976158142
2023-01-29T00:09:21.000Z,1.399999976158142
2023-01-29T00:09:36.000Z,1.399999976158142
2023-01-29T00:09:51.000Z,0.0
2023-01-29T00:10:06.000Z,0.8999999761581421
2023-01-29T00:10:21.000Z,0.8999999761581421
2023-01-29T00:10:36.000Z,1.399999976158142
2023-01-29T00:10:51.000Z,1.399999976158142
2023-01-29T00:11:06.000Z,1.399999976158142
2023-01-29T00:11:21.000Z,1.899999976158142
2023-01-29T00:11:36.000Z,1.399999976158142
2023-01-29T00:11:50.000Z,0.8999999761581421
2023-01-29T00:12:05.000Z,1.399999976158142
2023-01-29T00:12:20.000Z,1.399999976158142
2023-01-29T00:12:35.000Z,1.399999976158142
2023-01-29T00:12:50.000Z,0.8999999761581421
2023-01-29T00:13:05.000Z,0.8999999761581421
2023-01-29T00:13:20.000Z,0.0
2023-01-29T00:13:35.000Z,1.399999976158142
2023-01-29T00:13:50.000Z,2.4000000953674316
2023-01-29T00:14:06.000Z,2.4000000953674316
2023-01-29T00:14:21.000Z,0.8999999761581421
2023-01-29T00:14:36.000Z,1.399999976158142
2023-01-29T00:14:51.000Z,0.0
2023-01-29T00:15:06.000Z,1.399999976158142
2023-01-29T00:15:21.000Z,0.8999999761581421
2023-01-29T00:15:36.000Z,0.0
2023-01-29T00:15:51.000Z,0.8999999761581421
2023-01-29T00:16:06.000Z,0.8999999761581421
2023-01-29T00:16:21.000Z,0.8999999761581421
2023-01-29T00:16:36.000Z,1.399999976158142
2023-01-29T00:16:51.000Z,1.399999976158142
2023-01-29T00:17:06.000Z,1.399999976158142
2023-01-29T00:17:21.000Z,0.0
2023-01-29T00:17:36.000Z,0.0
2023-01-29T00:17:51.000Z,0.0
2023-01-29T00:18:06.000Z,0.8999999761581421
2023-01-29T00:18:21.000Z,0.0
2023-01-29T00:18:36.000Z,0.0
2023-01-29T00:18:50.000Z,0.0
2023-01-29T00:19:05.000Z,1.399999976158142
2023-01-29T00:19:20.000Z,1.899999976158142
2023-01-29T00:19:35.000Z,1.899999976158142
2023-01-29T00:19:50.000Z,1.399999976158142
2023-01-29T00:20:05.000Z,1.399999976158142
2023-01-29T00:20:20.000Z,0.8999999761581421
2023-01-29T00:20:35.000Z,0.8999999761581421
2023-01-29T00:20:50.000Z,0.8999999761581421
2023-01-29T00:21:06.000Z,0.0
2023-01-29T00:21:21.000Z,0.8999999761581421
2023-01-29T00:21:36.000Z,1.899999976158142
2023-01-29T00:21:51.000Z,0.8999999761581421
2023-01-29T00:22:06.000Z,1.399999976158142
2023-01-29T00:22:21.000Z,1.899999976158142
2023-01-29T00:22:36.000Z,1.399999976158142
2023-01-29T00:22:51.000Z,0.8999999761581421
2023-01-29T00:23:06.000Z,1.399999976158142
2023-01-29T00:23:21.000Z,0.8999999761581421
2023-01-29T00:23:36.000Z,0.8999999761581421
2023-01-29T00:23:51.000Z,1.399999976158142
2023-01-29T00:24:06.000Z,0.8999999761581421
2023-01-29T00:24:21.000Z,0.8999999761581421
2023-01-29T00:24:36.000Z,0.8999999761581421
2023-01-29T00:24:51.000Z,2.4000000953674316
2023-01-29T00:25:06.000Z,0.8999999761581421
2023-01-29T00:25:21.000Z,0.8999999761581421
2023-01-29T00:25:36.000Z,1.399999976158142
2023-01-29T00:25:51.000Z,0.8999999761581421
2023-01-29T00:26:05.000Z,1.399999976158142
2023-01-29T00:26:20.000Z,1.399999976158142
2023-01-29T00:26:35.000Z,1.399999976158142
2023-01-29T00:26:50.000Z,0.8999999761581421
2023-01-29T00:27:05.000Z,0.8999999761581421
2023-01-29T00:27:20.000Z,0.0
2023-01-29T00:27:35.000Z,0.8999999761581421
2023-01-29T00:27:50.000Z,0.8999999761581421
2023-01-29T00:28:06.000Z,0.8999999761581421
2023-01-29T00:28:21.000Z,0.8999999761581421
2023-01-29T00:28:36.000Z,0.8999999761581421
2023-01-29T00:28:51.000Z,1.399999976158142
2023-01-29T00:29:06.000Z,0.8999999761581421
2023-01-29T00:29:21.000Z,1.399999976158142
2023-01-29T00:29:36.000Z,0.8999999761581421
2023-01-29T00:29:51.000Z,1.399999976158142
2023-01-29T00:30:06.000Z,0.8999999761581421
2023-01-29T00:30:21.000Z,0.8999999761581421
2023-01-29T00:30:36.000Z,1.399999976158142
2023-01-29T00:30:51.000Z,1.899999976158142
2023-01-29T00:31:06.000Z,1.899999976158142
2023-01-29T00:31:21.000Z,1.899999976158142
2023-01-29T00:31:36.000Z,1.399999976158142
2023-01-29T00:31:51.000Z,1.399999976158142
2023-01-29T00:32:06.000Z,1.399999976158142
2023-01-29T00:32:21.000Z,1.899999976158142
2023-01-29T00:32:36.000Z,1.899999976158142
2023-01-29T00:32:51.000Z,1.899999976158142
2023-01-29T00:33:06.000Z,2.4000000953674316
2023-01-29T00:33:20.000Z,1.899999976158142
2023-01-29T00:33:35.000Z,1.899999976158142
2023-01-29T00:33:50.000Z,1.399999976158142
2023-01-29T00:34:05.000Z,2.4000000953674316
2023-01-29T00:34:20.000Z,3.799999952316284
2023-01-29T00:34:35.000Z,3.299999952316284
2023-01-29T00:34:50.000Z,4.300000190734863
2023-01-29T00:35:05.000Z,3.299999952316284
2023-01-29T00:35:21.000Z,3.299999952316284
2023-01-29T00:35:36.000Z,1.899999976158142
2023-01-29T00:35:51.000Z,2.799999952316284
2023-01-29T00:36:06.000Z,1.899999976158142
2023-01-29T00:36:21.000Z,1.899999976158142
2023-01-29T00:36:36.000Z,1.899999976158142
2023-01-29T00:36:51.000Z,3.299999952316284
2023-01-29T00:37:06.000Z,4.300000190734863
2023-01-29T00:37:21.000Z,3.799999952316284
2023-01-29T00:37:36.000Z,2.799999952316284
2023-01-29T00:37:51.000Z,1.899999976158142
2023-01-29T00:38:06.000Z,1.899999976158142
2023-01-29T00:38:21.000Z,1.899999976158142
2023-01-29T00:38:36.000Z,1.899999976158142
2023-01-29T00:38:51.000Z,0.8999999761581421
2023-01-29T00:39:06.000Z,1.399999976158142
2023-01-29T00:39:21.000Z,3.299999952316284
2023-01-29T00:39:36.000Z,2.4000000953674316
2023-01-29T00:39:51.000Z,1.399999976158142
2023-01-29T00:40:06.000Z,1.399999976158142
2023-01-29T00:40:21.000Z,2.799999952316284
2023-01-29T00:40:35.000Z,1.399999976158142
2023-01-29T00:40:50.000Z,0.8999999761581421
2023-01-29T00:41:05.000Z,1.399999976158142
2023-01-29T00:41:20.000Z,0.8999999761581421
2023-01-29T00:41:35.000Z,1.899999976158142
2023-01-29T00:41:50.000Z,0.8999999761581421
2023-01-29T00:42:05.000Z,1.399999976158142
2023-01-29T00:42:20.000Z,1.399999976158142
2023-01-29T00:42:36.000Z,1.399999976158142
2023-01-29T00:42:51.000Z,1.899999976158142
2023-01-29T00:43:06.000Z,0.8999999761581421
2023-01-29T00:43:21.000Z,0.0
2023-01-29T00:43:36.000Z,1.399999976158142
2023-01-29T00:43:51.000Z,0.8999999761581421
2023-01-29T00:44:06.000Z,0.0
2023-01-29T00:44:21.000Z,0.8999999761581421
2023-01-29T00:44:36.000Z,0.8999999761581421
2023-01-29T00:44:51.000Z,0.8999999761581421
2023-01-29T00:45:06.000Z,0.8999999761581421
2023-01-29T00:45:21.000Z,0.8999999761581421
2023-01-29T00:45:36.000Z,0.8999999761581421
2023-01-29T00:45:51.000Z,0.0
2023-01-29T00:46:06.000Z,0.0
2023-01-29T00:46:21.000Z,0.0
2023-01-29T00:46:36.000Z,0.0
2023-01-29T00:46:51.000Z,0.0
2023-01-29T00:47:06.000Z,0.0
2023-01-29T00:47:21.000Z,0.0
2023-01-29T00:47:36.000Z,0.8999999761581421
2023-01-29T00:47:50.000Z,1.399999976158142
2023-01-29T00:48:05.000Z,1.399999976158142
2023-01-29T00:48:20.000Z,0.8999999761581421
2023-01-29T00:48:35.000Z,0.8999999761581421
2023-01-29T00:48:50.000Z,1.399999976158142
2023-01-29T00:49:05.000Z,0.0
2023-01-29T00:49:20.000Z,1.399999976158142
2023-01-29T00:49:35.000Z,0.8999999761581421
2023-01-29T00:49:51.000Z,1.399999976158142
2023-01-29T00:50:06.000Z,1.399999976158142
2023-01-29T00:50:21.000Z,0.8999999761581421
2023-01-29T00:50:36.000Z,0.8999999761581421
2023-01-29T00:50:51.000Z,0.8999999761581421
2023-01-29T00:51:06.000Z,1.399999976158142
2023-01-29T00:51:21.000Z,1.399999976158142
2023-01-29T00:51:36.000Z,1.399999976158142
2023-01-29T00:51:51.000Z,1.399999976158142
2023-01-29T00:52:06.000Z,0.8999999761581421
2023-01-29T00:52:21.000Z,0.0
2023-01-29T00:52:36.000Z,1.399999976158142
2023-01-29T00:52:51.000Z,0.8999999761581421
2023-01-29T00:53:06.000Z,1.399999976158142
2023-01-29T00:53:21.000Z,1.399999976158142
2023-01-29T00:53:36.000Z,0.8999999761581421
2023-01-29T00:53:51.000Z,0.8999999761581421
2023-01-29T00:54:06.000Z,1.399999976158142
2023-01-29T00:54:21.000Z,0.8999999761581421
2023-01-29T00:54:36.000Z,0.0
2023-01-29T00:54:50.000Z,1.399999976158142
2023-01-29T00:55:05.000Z,0.8999999761581421
2023-01-29T00:55:20.000Z,0.8999999761581421
2023-01-29T00:55:35.000Z,0.0
2023-01-29T00:55:50.000Z,1.399999976158142
2023-01-29T00:56:05.000Z,1.399999976158142
2023-01-29T00:56:20.000Z,1.899999976158142
2023-01-29T00:56:35.000Z,1.899999976158142
2023-01-29T00:56:50.000Z,1.899999976158142
2023-01-29T00:57:06.000Z,0.8999999761581421
2023-01-29T00:57:21.000Z,0.8999999761581421
2023-01-29T00:57:36.000Z,1.399999976158142
2023-01-29T00:57:51.000Z,1.399999976158142
2023-01-29T00:58:06.000Z,2.4000000953674316
2023-01-29T00:58:21.000Z,1.399999976158142
2023-01-29T00:58:36.000Z,0.8999999761581421
2023-01-29T00:58:51.000Z,1.399999976158142
2023-01-29T00:59:06.000Z,0.8999999761581421
2023-01-29T00:59:21.000Z,1.399999976158142
2023-01-29T00:59:36.000Z,1.399999976158142
2023-01-29T00:59:51.000Z,0.8999999761581421
2023-01-29T01:00:06.000Z,1.399999976158142
2023-01-29T01:00:21.000Z,0.0
2023-01-29T01:00:36.000Z,0.8999999761581421
2023-01-29T01:00:51.000Z,0.8999999761581421
2023-01-29T01:01:06.000Z,0.0
2023-01-29T01:01:21.000Z,0.0
2023-01-29T01:01:36.000Z,0.0
2023-01-29T01:01:51.000Z,0.0
2023-01-29T01:02:05.000Z,0.0
2023-01-29T01:02:20.000Z,0.8999999761581421
2023-01-29T01:02:35.000Z,0.8999999761581421
2023-01-29T01:02:50.000Z,0.8999999761581421
2023-01-29T01:03:05.000Z,1.399999976158142
2023-01-29T01:03:20.000Z,1.899999976158142
2023-01-29T01:03:35.000Z,1.399999976158142
2023-01-29T01:03:50.000Z,1.399999976158142
2023-01-29T01:04:05.000Z,1.399999976158142
2023-01-29T01:04:21.000Z,0.8999999761581421
2023-01-29T01:04:36.000Z,0.8999999761581421
2023-01-29T01:04:51.000Z,1.399999976158142
2023-01-29T01:05:06.000Z,1.399999976158142
2023-01-29T01:05:21.000Z,1.899999976158142
2023-01-29T01:05:36.000Z,1.399999976158142
2023-01-29T01:05:51.000Z,0.8999999761581421
2023-01-29T01:06:06.000Z,1.899999976158142
2023-01-29T01:06:21.000Z,1.399999976158142
2023-01-29T01:06:36.000Z,1.399999976158142
2023-01-29T01:06:51.000Z,1.399999976158142
2023-01-29T01:07:06.000Z,2.4000000953674316
2023-01-29T01:07:21.000Z,0.8999999761581421
2023-01-29T01:07:36.000Z,2.799999952316284
2023-01-29T01:07:51.000Z,1.399999976158142
2023-01-29T01:08:06.000Z,1.399999976158142
2023-01-29T01:08:21.000Z,1.899999976158142
2023-01-29T01:08:36.000Z,1.399999976158142
2023-01-29T01:08:51.000Z,1.399999976158142
2023-01-29T01:09:06.000Z,1.899999976158142
2023-01-29T01:09:20.000Z,1.899999976158142
2023-01-29T01:09:35.000Z,1.399999976158142
2023-01-29T01:09:50.000Z,1.899999976158142
2023-01-29T01:10:05.000Z,1.399999976158142
2023-01-29T01:10:20.000Z,1.399999976158142
2023-01-29T01:10:35.000Z,2.4000000953674316
2023-01-29T01:10:50.000Z,1.899999976158142
2023-01-29T01:11:05.000Z,1.399999976158142
2023-01-29T01:11:20.000Z,1.899999976158142
2023-01-29T01:11:36.000Z,1.899999976158142
2023-01-29T01:11:51.000Z,0.8999999761581421
2023-01-29T01:12:06.000Z,0.8999999761581421
2023-01-29T01:12:21.000Z,1.399999976158142
2023-01-29T01:12:36.000Z,0.8999999761581421
2023-01-29T01:12:51.000Z,1.899999976158142
2023-01-29T01:13:06.000Z,1.899999976158142
2023-01-29T01:13:21.000Z,1.899999976158142
2023-01-29T01:13:36.000Z,0.8999999761581421
2023-01-29T01:13:51.000Z,1.899999976158142
2023-01-29T01:14:06.000Z,0.8999999761581421
2023-01-29T01:14:21.000Z,1.399999976158142
2023-01-29T01:14:36.000Z,1.899999976158142
2023-01-29T01:14:51.000Z,1.399999976158142
2023-01-29T01:15:06.000Z,1.399999976158142
2023-01-29T01:15:21.000Z,1.399999976158142
2023-01-29T01:15:36.000Z,0.8999999761581421
2023-01-29T01:15:51.000Z,1.399999976158142
2023-01-29T01:16:06.000Z,1.399999976158142
2023-01-29T01:16:21.000Z,0.8999999761581421
2023-01-29T01:16:35.000Z,0.8999999761581421
2023-01-29T01:16:50.000Z,1.399999976158142
2023-01-29T01:17:05.000Z,0.8999999761581421
2023-01-29T01:17:20.000Z,1.399999976158142
2023-01-29T01:17:35.000Z,1.399999976158142
2023-01-29T01:17:50.000Z,1.399999976158142
2023-01-29T01:18:05.000Z,1.399999976158142
2023-01-29T01:18:20.000Z,1.399999976158142
2023-01-29T01:18:35.000Z,1.399999976158142
2023-01-29T01:18:51.000Z,1.899999976158142
2023-01-29T01:19:06.000Z,1.399999976158142
2023-01-29T01:19:21.000Z,1.399999976158142
2023-01-29T01:19:36.000Z,1.899999976158142
2023-01-29T01:19:51.000Z,1.399999976158142
2023-01-29T01:20:06.000Z,0.8999999761581421
2023-01-29T01:20:21.000Z,0.8999999761581421
2023-01-29T01:20:36.000Z,0.8999999761581421
2023-01-29T01:20:51.000Z,1.399999976158142
2023-01-29T01:21:06.000Z,1.399999976158142
2023-01-29T01:21:21.000Z,0.8999999761581421
2023-01-29T01:21:36.000Z,1.399999976158142
2023-01-29T01:21:51.000Z,1.399999976158142
2023-01-29T01:22:06.000Z,1.399999976158142
2023-01-29T01:22:21.000Z,1.399999976158142
2023-01-29T01:22:36.000Z,0.8999999761581421
2023-01-29T01:22:51.000Z,1.399999976158142
2023-01-29T01:23:06.000Z,1.399999976158142
2023-01-29T01:23:21.000Z,1.899999976158142
2023-01-29T01:23:36.000Z,1.399999976158142
2023-01-29T01:23:50.000Z,1.899999976158142
2023-01-29T01:24:05.000Z,1.399999976158142
2023-01-29T01:24:20.000Z,1.399999976158142
2023-01-29T01:24:35.000Z,1.899999976158142
2023-01-29T01:24:50.000Z,1.399999976158142
2023-01-29T01:25:05.000Z,1.899999976158142
2023-01-29T01:25:20.000Z,1.399999976158142
2023-01-29T01:25:35.000Z,1.399999976158142
2023-01-29T01:25:50.000Z,0.8999999761581421
2023-01-29T01:26:06.000Z,1.399999976158142
2023-01-29T01:26:21.000Z,1.399999976158142
2023-01-29T01:26:36.000Z,0.8999999761581421
2023-01-29T01:26:51.000Z,1.399999976158142
2023-01-29T01:27:06.000Z,1.399999976158142
2023-01-29T01:27:21.000Z,1.399999976158142
2023-01-29T01:27:36.000Z,1.399999976158142
2023-01-29T01:27:51.000Z,1.399999976158142
2023-01-29T01:28:06.000Z,0.8999999761581421
2023-01-29T01:28:21.000Z,0.0
2023-01-29T01:28:36.000Z,0.0
2023-01-29T01:28:51.000Z,0.0
2023-01-29T01:29:06.000Z,0.0
2023-01-29T01:29:21.000Z,0.0
2023-01-29T01:29:36.000Z,0.0
2023-01-29T01:29:51.000Z,0.0
2023-01-29T01:30:06.000Z,1.399999976158142
2023-01-29T01:30:21.000Z,0.0
2023-01-29T01:30:36.000Z,0.8999999761581421
2023-01-29T01:30:51.000Z,1.899999976158142
2023-01-29T01:31:05.000Z,1.399999976158142
2023-01-29T01:31:20.000Z,0.8999999761581421
2023-01-29T01:31:35.000Z,0.8999999761581421
2023-01-29T01:31:50.000Z,0.8999999761581421
2023-01-29T01:32:05.000Z,0.8999999761581421
2023-01-29T01:32:20.000Z,0.8999999761581421
2023-01-29T01:32:35.000Z,0.0
2023-01-29T01:32:50.000Z,0.8999999761581421
2023-01-29T01:33:06.000Z,1.399999976158142
2023-01-29T01:33:21.000Z,0.8999999761581421
2023-01-29T01:33:36.000Z,0.8999999761581421
2023-01-29T01:33:51.000Z,1.399999976158142
2023-01-29T01:34:06.000Z,0.8999999761581421
2023-01-29T01:34:21.000Z,0.8999999761581421
2023-01-29T01:34:36.000Z,0.8999999761581421
2023-01-29T01:34:51.000Z,0.0
2023-01-29T01:35:06.000Z,0.8999999761581421
2023-01-29T01:35:21.000Z,0.8999999761581421
2023-01-29T01:35:36.000Z,0.0
2023-01-29T01:35:51.000Z,0.8999999761581421
2023-01-29T01:36:06.000Z,0.8999999761581421
2023-01-29T01:36:21.000Z,0.0
2023-01-29T01:36:36.000Z,0.0
2023-01-29T01:36:51.000Z,0.0
2023-01-29T01:37:06.000Z,0.0
2023-01-29T01:37:21.000Z,1.399999976158142
2023-01-29T01:37:36.000Z,0.8999999761581421
2023-01-29T01:37:51.000Z,0.0
2023-01-29T01:38:06.000Z,0.8999999761581421
2023-01-29T01:38:20.000Z,0.0
2023-01-29T01:38:35.000Z,0.8999999761581421
2023-01-29T01:38:50.000Z,0.8999999761581421
2023-01-29T01:39:05.000Z,1.399999976158142
2023-01-29T01:39:20.000Z,0.8999999761581421
2023-01-29T01:39:35.000Z,1.899999976158142
2023-01-29T01:39:50.000Z,1.399999976158142
2023-01-29T01:40:05.000Z,1.399999976158142
2023-01-29T01:40:20.000Z,1.399999976158142
2023-01-29T01:40:36.000Z,1.399999976158142
2023-01-29T01:40:51.000Z,1.399999976158142
2023-01-29T01:41:06.000Z,1.399999976158142
2023-01-29T01:41:21.000Z,0.8999999761581421
2023-01-29T01:41:36.000Z,0.0
2023-01-29T01:41:51.000Z,0.0
2023-01-29T01:42:06.000Z,0.0
2023-01-29T01:42:21.000Z,0.0
2023-01-29T01:42:36.000Z,0.0
2023-01-29T01:42:51.000Z,0.0
2023-01-29T01:43:06.000Z,0.0
2023-01-29T01:43:21.000Z,0.0
2023-01-29T01:43:36.000Z,0.0
2023-01-29T01:43:51.000Z,0.0
2023-01-29T01:44:06.000Z,0.0
2023-01-29T01:44:21.000Z,0.0
2023-01-29T01:44:36.000Z,0.0
2023-01-29T01:44:51.000Z,0.0
2023-01-29T01:45:06.000Z,0.0
2023-01-29T01:45:21.000Z,0.0
2023-01-29T01:45:35.000Z,0.0
2023-01-29T01:45:50.000Z,0.0
2023-01-29T01:46:05.000Z,0.0
2023-01-29T01:46:20.000Z,0.0
2023-01-29T01:46:35.000Z,0.0
2023-01-29T01:46:50.000Z,0.0
2023-01-29T01:47:05.000Z,0.0
2023-01-29T01:47:20.000Z,0.0
2023-01-29T01:47:35.000Z,0.0
2023-01-29T01:47:51.000Z,0.0
2023-01-29T01:48:06.000Z,0.0
2023-01-29T01:48:21.000Z,0.0
2023-01-29T01:48:36.000Z,0.0
2023-01-29T01:48:51.000Z,0.0
2023-01-29T01:49:06.000Z,0.0
2023-01-29T01:49:21.000Z,0.8999999761581421
2023-01-29T01:49:36.000Z,0.8999999761581421
2023-01-29T01:49:51.000Z,0.0
2023-01-29T01:50:06.000Z,0.8999999761581421
2023-01-29T01:50:21.000Z,0.8999999761581421
2023-01-29T01:50:36.000Z,0.0
2023-01-29T01:50:51.000Z,0.0
2023-01-29T01:51:06.000Z,0.0
2023-01-29T01:51:21.000Z,0.8999999761581421
2023-01-29T01:51:36.000Z,1.399999976158142
2023-01-29T01:51:51.000Z,1.399999976158142
2023-01-29T01:52:06.000Z,0.8999999761581421
2023-01-29T01:52:21.000Z,0.0
2023-01-29T01:52:36.000Z,0.0
2023-01-29T01:52:50.000Z,0.0
2023-01-29T01:53:05.000Z,0.0
2023-01-29T01:53:20.000Z,0.0
2023-01-29T01:53:35.000Z,0.0
2023-01-29T01:53:50.000Z,0.0
2023-01-29T01:54:05.000Z,0.0
2023-01-29T01:54:20.000Z,0.0
2023-01-29T01:54:35.000Z,0.0
2023-01-29T01:54:50.000Z,0.8999999761581421
2023-01-29T01:55:06.000Z,0.8999999761581421
2023-01-29T01:55:21.000Z,1.399999976158142
2023-01-29T01:55:36.000Z,0.8999999761581421
2023-01-29T01:55:51.000Z,1.399999976158142
2023-01-29T01:56:06.000Z,1.899999976158142
2023-01-29T01:56:21.000Z,0.8999999761581421
2023-01-29T01:56:36.000Z,2.4000000953674316
2023-01-29T01:56:51.000Z,1.399999976158142
2023-01-29T01:57:06.000Z,0.8999999761581421
2023-01-29T01:57:21.000Z,2.4000000953674316
2023-01-29T01:57:36.000Z,1.899999976158142
2023-01-29T01:57:51.000Z,1.399999976158142
2023-01-29T01:58:06.000Z,1.399999976158142
2023-01-29T01:58:21.000Z,0.8999999761581421
2023-01-29T01:58:36.000Z,0.0
2023-01-29T01:58:51.000Z,0.0
2023-01-29T01:59:06.000Z,0.8999999761581421
2023-01-29T01:59:21.000Z,1.399999976158142
2023-01-29T01:59:36.000Z,0.8999999761581421
2023-01-29T01:59:51.000Z,0.8999999761581421
2023-01-29T02:00:05.000Z,0.8999999761581421
2023-01-29T02:00:20.000Z,0.0
2023-01-29T02:00:35.000Z,0.8999999761581421
2023-01-29T02:00:50.000Z,1.899999976158142
2023-01-29T02:01:05.000Z,1.399999976158142
2023-01-29T02:01:20.000Z,1.399999976158142
2023-01-29T02:01:35.000Z,0.8999999761581421
2023-01-29T02:01:50.000Z,0.8999999761581421
2023-01-29T02:02:05.000Z,1.399999976158142
2023-01-29T02:02:21.000Z,0.8999999761581421
2023-01-29T02:02:36.000Z,0.0
2023-01-29T02:02:51.000Z,0.8999999761581421
2023-01-29T02:03:06.000Z,0.0
2023-01-29T02:03:21.000Z,0.0
2023-01-29T02:03:36.000Z,0.0
2023-01-29T02:03:51.000Z,0.0
2023-01-29T02:04:06.000Z,0.0
2023-01-29T02:04:21.000Z,0.8999999761581421
2023-01-29T02:04:36.000Z,1.899999976158142
2023-01-29T02:04:51.000Z,0.8999999761581421
2023-01-29T02:05:06.000Z,1.399999976158142
2023-01-29T02:05:21.000Z,0.8999999761581421
2023-01-29T02:05:36.000Z,0.8999999761581421
2023-01-29T02:05:51.000Z,0.0
2023-01-29T02:06:06.000Z,0.0
2023-01-29T02:06:21.000Z,0.0
2023-01-29T02:06:36.000Z,0.0
2023-01-29T02:06:51.000Z,0.0
2023-01-29T02:07:06.000Z,0.0
2023-01-29T02:07:20.000Z,0.0
2023-01-29T02:07:35.000Z,0.0
2023-01-29T02:07:50.000Z,0.0
2023-01-29T02:08:05.000Z,0.0
2023-01-29T02:08:20.000Z,0.0
2023-01-29T02:08:35.000Z,0.0
2023-01-29T02:08:50.000Z,0.0
2023-01-29T02:09:05.000Z,0.0
2023-01-29T02:09:21.000Z,0.0
2023-01-29T02:09:36.000Z,0.0
2023-01-29T02:09:51.000Z,0.0
2023-01-29T02:10:06.000Z,0.0
2023-01-29T02:10:21.000Z,0.0
2023-01-29T02:10:36.000Z,0.0
2023-01-29T02:10:51.000Z,0.0
2023-01-29T02:11:06.000Z,0.0
2023-01-29T02:11:21.000Z,0.0
2023-01-29T02:11:36.000Z,0.0
2023-01-29T02:11:51.000Z,0.0
2023-01-29T02:12:06.000Z,0.0
2023-01-29T02:12:21.000Z,0.0
2023-01-29T02:12:36.000Z,0.0
2023-01-29T02:12:51.000Z,0.0
2023-01-29T02:13:06.000Z,0.0
2023-01-29T02:13:21.000Z,0.0
2023-01-29T02:13:36.000Z,0.0
2023-01-29T02:13:51.000Z,0.0
2023-01-29T02:14:06.000Z,0.8999999761581421
2023-01-29T02:14:20.000Z,1.399999976158142
2023-01-29T02:14:35.000Z,0.8999999761581421
2023-01-29T02:14:50.000Z,0.8999999761581421
2023-01-29T02:15:05.000Z,0.8999999761581421
2023-01-29T02:15:20.000Z,1.399999976158142
2023-01-29T02:15:35.000Z,1.399999976158142
2023-01-29T02:15:50.000Z,1.899999976158142
2023-01-29T02:16:05.000Z,0.0
2023-01-29T02:16:20.000Z,0.8999999761581421
2023-01-29T02:16:36.000Z,0.8999999761581421
2023-01-29T02:16:51.000Z,0.8999999761581421
2023-01-29T02:17:06.000Z,0.0
2023-01-29T02:17:21.000Z,0.0
2023-01-29T02:17:36.000Z,0.0
2023-01-29T02:17:51.000Z,0.0
2023-01-29T02:18:06.000Z,0.8999999761581421
2023-01-29T02:18:21.000Z,0.8999999761581421
2023-01-29T02:18:36.000Z,0.8999999761581421
2023-01-29T02:18:51.000Z,0.8999999761581421
2023-01-29T02:19:06.000Z,0.0
2023-01-29T02:19:21.000Z,0.0
2023-01-29T02:19:36.000Z,0.0
2023-01-29T02:19:51.000Z,0.8999999761581421
2023-01-29T02:20:06.000Z,0.0
2023-01-29T02:20:21.000Z,1.399999976158142
2023-01-29T02:20:36.000Z,1.899999976158142
2023-01-29T02:20:51.000Z,1.899999976158142
2023-01-29T02:21:06.000Z,1.399999976158142
2023-01-29T02:21:20.000Z,1.399999976158142
2023-01-29T02:21:35.000Z,0.8999999761581421
2023-01-29T02:21:50.000Z,1.399999976158142
2023-01-29T02:22:05.000Z,0.8999999761581421
2023-01-29T02:22:20.000Z,0.8999999761581421
2023-01-29T02:22:35.000Z,0.8999999761581421
2023-01-29T02:22:50.000Z,0.8999999761581421
2023-01-29T02:23:05.000Z,1.399999976158142
2023-01-29T02:23:20.000Z,0.8999999761581421
2023-01-29T02:23:36.000Z,1.399999976158142
2023-01-29T02:23:51.000Z,1.399999976158142
2023-01-29T02:24:06.000Z,0.8999999761581421
2023-01-29T02:24:21.000Z,0.8999999761581421
2023-01-29T02:24:36.000Z,0.8999999761581421
2023-01-29T02:24:51.000Z,1.399999976158142
2023-01-29T02:25:06.000Z,1.399999976158142
2023-01-29T02:25:21.000Z,0.8999999761581421
2023-01-29T02:25:36.000Z,0.8999999761581421
2023-01-29T02:25:51.000Z,1.399999976158142
2023-01-29T02:26:06.000Z,1.399999976158142
2023-01-29T02:26:21.000Z,0.8999999761581421
2023-01-29T02:26:36.000Z,0.8999999761581421
2023-01-29T02:26:51.000Z,1.899999976158142
2023-01-29T02:27:06.000Z,1.399999976158142
2023-01-29T02:27:21.000Z,0.8999999761581421
2023-01-29T02:27:36.000Z,1.399999976158142
2023-01-29T02:27:51.000Z,0.0
2023-01-29T02:28:06.000Z,1.899999976158142
2023-01-29T02:28:21.000Z,1.399999976158142
2023-01-29T02:28:35.000Z,1.899999976158142
2023-01-29T02:28:50.000Z,1.399999976158142
2023-01-29T02:29:05.000Z,1.399999976158142
2023-01-29T02:29:20.000Z,0.8999999761581421
2023-01-29T02:29:35.000Z,0.8999999761581421
2023-01-29T02:29:50.000Z,1.399999976158142
2023-01-29T02:30:05.000Z,0.8999999761581421
2023-01-29T02:30:20.000Z,0.8999999761581421
2023-01-29T02:30:36.000Z,0.0
2023-01-29T02:30:51.000Z,0.0
2023-01-29T02:31:06.000Z,0.0
2023-01-29T02:31:21.000Z,0.0
2023-01-29T02:31:36.000Z,0.0
2023-01-29T02:31:51.000Z,0.0
2023-01-29T02:32:06.000Z,0.0
2023-01-29T02:32:21.000Z,0.0
2023-01-29T02:32:36.000Z,0.0